sensor_id;sensor_type;location;lat;lon;timestamp;P1;durP1;ratioP1;P2;durP2;ratioP2
4430;SDS011;2228;48.140;11.488;2023-02-18T00:01:15;2.83;;;1.60;;
4430;SDS011;2228;48.140;11.488;2023-02-18T00:03:44;4.75;;;2.45;;
4430;SDS011;2228;48.140;11.488;2023-02-18T00:06:11;2.80;;;2.20;;
4430;SDS011;2228;48.140;11.488;2023-02-18T00:08:39;4.25;;;2.05;;
4430;SDS011;2228;48.140;11.488;2023-02-18T00:11:06;3.60;;;2.40;;
4430;SDS011;2228;48.140;11.488;2023-02-18T00:13:34;2.97;;;2.10;;
4430;SDS011;2228;48.140;11.488;2023-02-18T00:16:01;3.45;;;2.33;;
4430;SDS011;2228;48.140;11.488;2023-02-18T00:18:30;3.30;;;2.05;;
4430;SDS011;2228;48.140;11.488;2023-02-18T00:20:57;3.58;;;2.55;;
4430;SDS011;2228;48.140;11.488;2023-02-18T00:23:24;4.85;;;2.47;;
4430;SDS011;2228;48.140;11.488;2023-02-18T00:25:57;4.60;;;2.20;;
4430;SDS011;2228;48.140;11.488;2023-02-18T00:28:26;4.47;;;1.90;;
4430;SDS011;2228;48.140;11.488;2023-02-18T00:30:53;5.13;;;2.23;;
4430;SDS011;2228;48.140;11.488;2023-02-18T00:33:20;3.53;;;2.55;;
4430;SDS011;2228;48.140;11.488;2023-02-18T00:35:48;3.53;;;2.10;;
4430;SDS011;2228;48.140;11.488;2023-02-18T00:38:15;5.67;;;2.10;;
4430;SDS011;2228;48.140;11.488;2023-02-18T00:40:42;5.28;;;2.10;;
4430;SDS011;2228;48.140;11.488;2023-02-18T00:43:09;2.88;;;2.10;;
4430;SDS011;2228;48.140;11.488;2023-02-18T00:45:36;4.10;;;2.10;;
4430;SDS011;2228;48.140;11.488;2023-02-18T00:48:03;3.60;;;2.13;;
4430;SDS011;2228;48.140;11.488;2023-02-18T00:50:30;6.70;;;2.30;;
4430;SDS011;2228;48.140;11.488;2023-02-18T00:52:59;3.53;;;2.00;;
4430;SDS011;2228;48.140;11.488;2023-02-18T00:55:26;3.80;;;1.92;;
4430;SDS011;2228;48.140;11.488;2023-02-18T00:57:53;2.73;;;1.83;;
4430;SDS011;2228;48.140;11.488;2023-02-18T01:00:20;2.30;;;1.70;;
4430;SDS011;2228;48.140;11.488;2023-02-18T01:02:49;3.70;;;2.10;;
4430;SDS011;2228;48.140;11.488;2023-02-18T01:05:18;2.60;;;1.80;;
4430;SDS011;2228;48.140;11.488;2023-02-18T01:07:45;2.40;;;1.80;;
4430;SDS011;2228;48.140;11.488;2023-02-18T01:10:13;3.95;;;2.00;;
4430;SDS011;2228;48.140;11.488;2023-02-18T01:12:40;3.28;;;1.90;;
4430;SDS011;2228;48.140;11.488;2023-02-18T01:15:08;3.10;;;1.60;;
4430;SDS011;2228;48.140;11.488;2023-02-18T01:17:36;4.90;;;1.70;;
4430;SDS011;2228;48.140;11.488;2023-02-18T01:20:04;2.83;;;1.90;;
4430;SDS011;2228;48.140;11.488;2023-02-18T01:22:31;2.90;;;1.60;;
4430;SDS011;2228;48.140;11.488;2023-02-18T01:24:59;4.55;;;2.08;;
4430;SDS011;2228;48.140;11.488;2023-02-18T01:27:27;4.03;;;2.00;;
4430;SDS011;2228;48.140;11.488;2023-02-18T01:29:54;3.00;;;1.90;;
4430;SDS011;2228;48.140;11.488;2023-02-18T01:32:21;3.95;;;2.10;;
4430;SDS011;2228;48.140;11.488;2023-02-18T01:34:49;4.40;;;1.80;;
4430;SDS011;2228;48.140;11.488;2023-02-18T01:37:19;3.20;;;1.90;;
4430;SDS011;2228;48.140;11.488;2023-02-18T01:39:45;3.00;;;2.00;;
4430;SDS011;2228;48.140;11.488;2023-02-18T01:42:16;4.80;;;2.00;;
4430;SDS011;2228;48.140;11.488;2023-02-18T01:44:47;4.18;;;2.63;;
4430;SDS011;2228;48.140;11.488;2023-02-18T01:47:15;4.07;;;2.20;;
4430;SDS011;2228;48.140;11.488;2023-02-18T01:49:43;4.38;;;2.33;;
4430;SDS011;2228;48.140;11.488;2023-02-18T01:52:13;4.40;;;2.40;;
4430;SDS011;2228;48.140;11.488;2023-02-18T01:54:43;4.13;;;2.70;;
4430;SDS011;2228;48.140;11.488;2023-02-18T01:57:13;6.05;;;2.90;;
4430;SDS011;2228;48.140;11.488;2023-02-18T01:59:43;5.32;;;2.70;;
4430;SDS011;2228;48.140;11.488;2023-02-18T02:02:16;4.35;;;2.55;;
4430;SDS011;2228;48.140;11.488;2023-02-18T02:04:45;3.70;;;2.90;;
4430;SDS011;2228;48.140;11.488;2023-02-18T02:07:12;6.13;;;3.30;;
4430;SDS011;2228;48.140;11.488;2023-02-18T02:09:40;3.35;;;2.53;;
4430;SDS011;2228;48.140;11.488;2023-02-18T02:12:18;5.17;;;3.00;;
4430;SDS011;2228;48.140;11.488;2023-02-18T02:15:03;3.92;;;2.65;;
4430;SDS011;2228;48.140;11.488;2023-02-18T02:17:42;3.97;;;2.93;;
4430;SDS011;2228;48.140;11.488;2023-02-18T02:20:30;5.90;;;3.00;;
4430;SDS011;2228;48.140;11.488;2023-02-18T02:23:52;5.13;;;3.50;;
4430;SDS011;2228;48.140;11.488;2023-02-18T02:29:42;4.50;;;2.30;;
4430;SDS011;2228;48.140;11.488;2023-02-18T02:32:27;7.80;;;2.25;;
4430;SDS011;2228;48.140;11.488;2023-02-18T02:35:18;5.38;;;2.13;;
4430;SDS011;2228;48.140;11.488;2023-02-18T02:37:51;3.90;;;2.40;;
4430;SDS011;2228;48.140;11.488;2023-02-18T02:40:26;3.30;;;2.00;;
4430;SDS011;2228;48.140;11.488;2023-02-18T02:43:01;3.47;;;1.93;;
4430;SDS011;2228;48.140;11.488;2023-02-18T02:45:37;3.63;;;1.80;;
4430;SDS011;2228;48.140;11.488;2023-02-18T02:48:14;3.80;;;2.10;;
4430;SDS011;2228;48.140;11.488;2023-02-18T02:50:51;3.10;;;1.70;;
4430;SDS011;2228;48.140;11.488;2023-02-18T02:53:27;2.50;;;1.80;;
4430;SDS011;2228;48.140;11.488;2023-02-18T02:55:57;2.30;;;1.70;;
4430;SDS011;2228;48.140;11.488;2023-02-18T02:58:24;3.20;;;2.00;;
4430;SDS011;2228;48.140;11.488;2023-02-18T03:00:55;2.50;;;1.80;;
4430;SDS011;2228;48.140;11.488;2023-02-18T03:03:42;2.15;;;1.63;;
4430;SDS011;2228;48.140;11.488;2023-02-18T03:06:44;2.67;;;1.50;;
4430;SDS011;2228;48.140;11.488;2023-02-18T03:09:32;3.25;;;1.27;;
4430;SDS011;2228;48.140;11.488;2023-02-18T03:12:10;1.98;;;1.33;;
4430;SDS011;2228;48.140;11.488;2023-02-18T03:14:45;1.40;;;1.20;;
4430;SDS011;2228;48.140;11.488;2023-02-18T03:17:21;2.30;;;1.20;;
4430;SDS011;2228;48.140;11.488;2023-02-18T03:19:54;2.20;;;1.38;;
4430;SDS011;2228;48.140;11.488;2023-02-18T03:22:29;2.50;;;1.65;;
4430;SDS011;2228;48.140;11.488;2023-02-18T03:24:58;1.40;;;1.10;;
4430;SDS011;2228;48.140;11.488;2023-02-18T03:27:27;2.10;;;1.10;;
4430;SDS011;2228;48.140;11.488;2023-02-18T03:29:58;1.30;;;1.20;;
4430;SDS011;2228;48.140;11.488;2023-02-18T03:32:28;1.80;;;1.20;;
4430;SDS011;2228;48.140;11.488;2023-02-18T03:34:59;3.22;;;1.30;;
4430;SDS011;2228;48.140;11.488;2023-02-18T03:37:32;2.63;;;1.25;;
4430;SDS011;2228;48.140;11.488;2023-02-18T03:40:04;2.55;;;1.30;;
4430;SDS011;2228;48.140;11.488;2023-02-18T03:42:34;2.80;;;1.40;;
4430;SDS011;2228;48.140;11.488;2023-02-18T03:45:01;2.13;;;1.50;;
4430;SDS011;2228;48.140;11.488;2023-02-18T03:47:28;2.40;;;1.30;;
4430;SDS011;2228;48.140;11.488;2023-02-18T03:49:55;1.45;;;1.10;;
4430;SDS011;2228;48.140;11.488;2023-02-18T03:52:22;1.90;;;1.20;;
4430;SDS011;2228;48.140;11.488;2023-02-18T03:54:50;2.70;;;1.30;;
4430;SDS011;2228;48.140;11.488;2023-02-18T03:57:17;2.60;;;1.20;;
4430;SDS011;2228;48.140;11.488;2023-02-18T03:59:44;1.08;;;0.90;;
4430;SDS011;2228;48.140;11.488;2023-02-18T04:02:11;1.20;;;1.00;;
4430;SDS011;2228;48.140;11.488;2023-02-18T04:04:38;2.10;;;1.20;;
4430;SDS011;2228;48.140;11.488;2023-02-18T04:07:04;2.20;;;1.30;;
4430;SDS011;2228;48.140;11.488;2023-02-18T04:09:31;2.30;;;1.40;;
4430;SDS011;2228;48.140;11.488;2023-02-18T04:11:59;1.45;;;1.30;;
4430;SDS011;2228;48.140;11.488;2023-02-18T04:14:26;2.40;;;1.40;;
4430;SDS011;2228;48.140;11.488;2023-02-18T04:16:53;1.65;;;1.40;;
4430;SDS011;2228;48.140;11.488;2023-02-18T04:19:20;2.40;;;1.50;;
4430;SDS011;2228;48.140;11.488;2023-02-18T04:21:47;2.13;;;1.42;;
4430;SDS011;2228;48.140;11.488;2023-02-18T04:24:13;2.15;;;1.50;;
4430;SDS011;2228;48.140;11.488;2023-02-18T04:26:40;3.72;;;1.50;;
4430;SDS011;2228;48.140;11.488;2023-02-18T04:29:08;1.90;;;1.50;;
4430;SDS011;2228;48.140;11.488;2023-02-18T04:31:35;3.50;;;1.67;;
4430;SDS011;2228;48.140;11.488;2023-02-18T04:34:02;2.75;;;1.70;;
4430;SDS011;2228;48.140;11.488;2023-02-18T04:36:29;2.05;;;1.55;;
4430;SDS011;2228;48.140;11.488;2023-02-18T04:38:56;2.20;;;1.50;;
4430;SDS011;2228;48.140;11.488;2023-02-18T04:41:23;1.88;;;1.50;;
4430;SDS011;2228;48.140;11.488;2023-02-18T04:43:50;1.92;;;1.30;;
4430;SDS011;2228;48.140;11.488;2023-02-18T04:46:18;2.30;;;1.30;;
4430;SDS011;2228;48.140;11.488;2023-02-18T04:48:45;1.80;;;1.53;;
4430;SDS011;2228;48.140;11.488;2023-02-18T04:51:12;2.40;;;1.38;;
4430;SDS011;2228;48.140;11.488;2023-02-18T04:53:38;2.20;;;1.30;;
4430;SDS011;2228;48.140;11.488;2023-02-18T04:56:05;2.58;;;1.40;;
4430;SDS011;2228;48.140;11.488;2023-02-18T04:58:32;2.20;;;1.40;;
4430;SDS011;2228;48.140;11.488;2023-02-18T05:00:59;2.60;;;1.48;;
4430;SDS011;2228;48.140;11.488;2023-02-18T05:03:28;1.42;;;1.10;;
4430;SDS011;2228;48.140;11.488;2023-02-18T05:05:56;2.70;;;1.50;;
4430;SDS011;2228;48.140;11.488;2023-02-18T05:08:23;1.50;;;1.20;;
4430;SDS011;2228;48.140;11.488;2023-02-18T05:10:50;2.20;;;1.27;;
4430;SDS011;2228;48.140;11.488;2023-02-18T05:13:17;1.45;;;1.20;;
4430;SDS011;2228;48.140;11.488;2023-02-18T05:15:44;1.88;;;1.20;;
4430;SDS011;2228;48.140;11.488;2023-02-18T05:18:11;2.70;;;1.50;;
4430;SDS011;2228;48.140;11.488;2023-02-18T05:20:39;1.10;;;1.00;;
4430;SDS011;2228;48.140;11.488;2023-02-18T05:23:06;1.63;;;1.20;;
4430;SDS011;2228;48.140;11.488;2023-02-18T05:25:33;1.10;;;0.95;;
4430;SDS011;2228;48.140;11.488;2023-02-18T05:28:00;1.83;;;1.20;;
4430;SDS011;2228;48.140;11.488;2023-02-18T05:30:27;1.20;;;1.10;;
4430;SDS011;2228;48.140;11.488;2023-02-18T05:32:53;1.35;;;1.00;;
4430;SDS011;2228;48.140;11.488;2023-02-18T05:35:20;1.60;;;1.15;;
4430;SDS011;2228;48.140;11.488;2023-02-18T05:37:48;1.00;;;0.90;;
4430;SDS011;2228;48.140;11.488;2023-02-18T05:40:15;0.90;;;0.60;;
4430;SDS011;2228;48.140;11.488;2023-02-18T05:42:42;1.17;;;0.90;;
4430;SDS011;2228;48.140;11.488;2023-02-18T05:45:09;0.80;;;0.70;;
4430;SDS011;2228;48.140;11.488;2023-02-18T05:47:36;1.60;;;1.00;;
4430;SDS011;2228;48.140;11.488;2023-02-18T05:50:03;1.90;;;1.00;;
4430;SDS011;2228;48.140;11.488;2023-02-18T05:52:31;2.10;;;0.90;;
4430;SDS011;2228;48.140;11.488;2023-02-18T05:54:59;1.10;;;0.80;;
4430;SDS011;2228;48.140;11.488;2023-02-18T05:57:26;1.40;;;0.70;;
4430;SDS011;2228;48.140;11.488;2023-02-18T05:59:53;1.10;;;0.70;;
4430;SDS011;2228;48.140;11.488;2023-02-18T06:02:19;0.85;;;0.60;;
4430;SDS011;2228;48.140;11.488;2023-02-18T06:04:46;0.80;;;0.60;;
4430;SDS011;2228;48.140;11.488;2023-02-18T06:07:13;0.90;;;0.70;;
4430;SDS011;2228;48.140;11.488;2023-02-18T06:09:40;0.90;;;0.70;;
4430;SDS011;2228;48.140;11.488;2023-02-18T06:12:08;1.00;;;0.70;;
4430;SDS011;2228;48.140;11.488;2023-02-18T06:14:35;1.30;;;0.70;;
4430;SDS011;2228;48.140;11.488;2023-02-18T06:17:06;2.20;;;0.80;;
4430;SDS011;2228;48.140;11.488;2023-02-18T06:19:33;1.30;;;0.73;;
4430;SDS011;2228;48.140;11.488;2023-02-18T06:22:00;1.10;;;0.65;;
4430;SDS011;2228;48.140;11.488;2023-02-18T06:24:27;1.60;;;0.80;;
4430;SDS011;2228;48.140;11.488;2023-02-18T06:26:54;0.90;;;0.70;;
4430;SDS011;2228;48.140;11.488;2023-02-18T06:29:22;3.20;;;0.70;;
4430;SDS011;2228;48.140;11.488;2023-02-18T06:31:49;0.90;;;0.65;;
4430;SDS011;2228;48.140;11.488;2023-02-18T06:34:16;0.77;;;0.60;;
4430;SDS011;2228;48.140;11.488;2023-02-18T06:36:43;1.70;;;0.60;;
4430;SDS011;2228;48.140;11.488;2023-02-18T06:39:10;1.02;;;0.90;;
4430;SDS011;2228;48.140;11.488;2023-02-18T06:41:37;1.70;;;0.70;;
4430;SDS011;2228;48.140;11.488;2023-02-18T06:44:04;0.90;;;0.70;;
4430;SDS011;2228;48.140;11.488;2023-02-18T06:46:33;0.85;;;0.60;;
4430;SDS011;2228;48.140;11.488;2023-02-18T06:49:00;1.15;;;0.90;;
4430;SDS011;2228;48.140;11.488;2023-02-18T06:51:26;0.90;;;0.70;;
4430;SDS011;2228;48.140;11.488;2023-02-18T06:53:53;2.40;;;0.70;;
4430;SDS011;2228;48.140;11.488;2023-02-18T06:56:20;0.93;;;0.60;;
4430;SDS011;2228;48.140;11.488;2023-02-18T06:58:47;0.80;;;0.70;;
4430;SDS011;2228;48.140;11.488;2023-02-18T07:01:14;1.20;;;0.80;;
4430;SDS011;2228;48.140;11.488;2023-02-18T07:03:42;1.20;;;0.70;;
4430;SDS011;2228;48.140;11.488;2023-02-18T07:06:09;1.00;;;0.70;;
4430;SDS011;2228;48.140;11.488;2023-02-18T07:08:35;0.70;;;0.60;;
4430;SDS011;2228;48.140;11.488;2023-02-18T07:11:03;0.80;;;0.60;;
4430;SDS011;2228;48.140;11.488;2023-02-18T07:13:30;1.00;;;0.70;;
4430;SDS011;2228;48.140;11.488;2023-02-18T07:15:57;1.48;;;0.60;;
4430;SDS011;2228;48.140;11.488;2023-02-18T07:18:24;1.40;;;0.70;;
4430;SDS011;2228;48.140;11.488;2023-02-18T07:20:52;0.70;;;0.52;;
4430;SDS011;2228;48.140;11.488;2023-02-18T07:23:19;0.90;;;0.60;;
4430;SDS011;2228;48.140;11.488;2023-02-18T07:25:46;0.80;;;0.60;;
4430;SDS011;2228;48.140;11.488;2023-02-18T07:28:12;0.80;;;0.50;;
4430;SDS011;2228;48.140;11.488;2023-02-18T07:30:39;1.60;;;0.60;;
4430;SDS011;2228;48.140;11.488;2023-02-18T07:33:06;0.90;;;0.60;;
4430;SDS011;2228;48.140;11.488;2023-02-18T07:35:33;0.80;;;0.60;;
4430;SDS011;2228;48.140;11.488;2023-02-18T07:38:01;0.90;;;0.60;;
4430;SDS011;2228;48.140;11.488;2023-02-18T07:40:28;0.70;;;0.60;;
4430;SDS011;2228;48.140;11.488;2023-02-18T07:42:55;1.00;;;0.60;;
4430;SDS011;2228;48.140;11.488;2023-02-18T07:45:21;1.90;;;0.60;;
4430;SDS011;2228;48.140;11.488;2023-02-18T07:47:48;1.55;;;0.70;;
4430;SDS011;2228;48.140;11.488;2023-02-18T07:50:15;1.23;;;0.60;;
4430;SDS011;2228;48.140;11.488;2023-02-18T07:52:42;0.93;;;0.60;;
4430;SDS011;2228;48.140;11.488;2023-02-18T07:55:10;1.20;;;0.60;;
4430;SDS011;2228;48.140;11.488;2023-02-18T07:57:37;1.00;;;0.80;;
4430;SDS011;2228;48.140;11.488;2023-02-18T08:00:21;1.17;;;0.70;;
4430;SDS011;2228;48.140;11.488;2023-02-18T08:02:49;0.80;;;0.70;;
4430;SDS011;2228;48.140;11.488;2023-02-18T08:05:16;0.90;;;0.60;;
4430;SDS011;2228;48.140;11.488;2023-02-18T08:07:43;1.10;;;0.80;;
4430;SDS011;2228;48.140;11.488;2023-02-18T08:10:11;1.13;;;0.70;;
4430;SDS011;2228;48.140;11.488;2023-02-18T08:12:38;2.20;;;0.70;;
4430;SDS011;2228;48.140;11.488;2023-02-18T08:15:05;1.48;;;0.70;;
4430;SDS011;2228;48.140;11.488;2023-02-18T08:17:33;1.43;;;0.70;;
4430;SDS011;2228;48.140;11.488;2023-02-18T08:20:00;1.90;;;0.70;;
4430;SDS011;2228;48.140;11.488;2023-02-18T08:22:26;1.48;;;0.80;;
4430;SDS011;2228;48.140;11.488;2023-02-18T08:24:53;0.90;;;0.70;;
4430;SDS011;2228;48.140;11.488;2023-02-18T08:27:22;1.95;;;0.80;;
4430;SDS011;2228;48.140;11.488;2023-02-18T08:29:50;2.67;;;0.70;;
4430;SDS011;2228;48.140;11.488;2023-02-18T08:32:17;1.73;;;0.80;;
4430;SDS011;2228;48.140;11.488;2023-02-18T08:34:44;1.00;;;0.60;;
4430;SDS011;2228;48.140;11.488;2023-02-18T08:37:11;1.10;;;0.80;;
4430;SDS011;2228;48.140;11.488;2023-02-18T08:39:38;1.40;;;0.70;;
4430;SDS011;2228;48.140;11.488;2023-02-18T08:42:05;1.50;;;0.80;;
4430;SDS011;2228;48.140;11.488;2023-02-18T08:44:33;0.95;;;0.60;;
4430;SDS011;2228;48.140;11.488;2023-02-18T08:47:00;2.10;;;0.70;;
4430;SDS011;2228;48.140;11.488;2023-02-18T08:49:27;1.80;;;0.80;;
4430;SDS011;2228;48.140;11.488;2023-02-18T08:51:54;1.85;;;0.70;;
4430;SDS011;2228;48.140;11.488;2023-02-18T08:54:22;1.60;;;0.70;;
4430;SDS011;2228;48.140;11.488;2023-02-18T08:56:52;1.10;;;0.80;;
4430;SDS011;2228;48.140;11.488;2023-02-18T08:59:20;0.80;;;0.70;;
4430;SDS011;2228;48.140;11.488;2023-02-18T09:01:48;1.00;;;0.70;;
4430;SDS011;2228;48.140;11.488;2023-02-18T09:04:15;1.20;;;0.90;;
4430;SDS011;2228;48.140;11.488;2023-02-18T09:06:42;2.20;;;0.80;;
4430;SDS011;2228;48.140;11.488;2023-02-18T09:09:10;1.30;;;0.60;;
4430;SDS011;2228;48.140;11.488;2023-02-18T09:11:37;1.10;;;0.70;;
4430;SDS011;2228;48.140;11.488;2023-02-18T09:14:04;0.80;;;0.70;;
4430;SDS011;2228;48.140;11.488;2023-02-18T09:16:31;0.90;;;0.70;;
4430;SDS011;2228;48.140;11.488;2023-02-18T09:19:00;1.00;;;0.80;;
4430;SDS011;2228;48.140;11.488;2023-02-18T09:21:26;1.20;;;0.80;;
4430;SDS011;2228;48.140;11.488;2023-02-18T09:23:53;0.88;;;0.70;;
4430;SDS011;2228;48.140;11.488;2023-02-18T09:26:21;1.40;;;0.80;;
4430;SDS011;2228;48.140;11.488;2023-02-18T09:28:49;1.30;;;0.88;;
4430;SDS011;2228;48.140;11.488;2023-02-18T09:31:17;2.65;;;0.88;;
4430;SDS011;2228;48.140;11.488;2023-02-18T09:33:46;0.80;;;0.70;;
4430;SDS011;2228;48.140;11.488;2023-02-18T09:36:17;1.20;;;0.70;;
4430;SDS011;2228;48.140;11.488;2023-02-18T09:38:44;1.95;;;0.80;;
4430;SDS011;2228;48.140;11.488;2023-02-18T09:41:13;1.90;;;1.07;;
4430;SDS011;2228;48.140;11.488;2023-02-18T09:43:45;1.30;;;0.80;;
4430;SDS011;2228;48.140;11.488;2023-02-18T09:46:16;1.27;;;1.00;;
4430;SDS011;2228;48.140;11.488;2023-02-18T09:48:47;2.35;;;1.20;;
4430;SDS011;2228;48.140;11.488;2023-02-18T09:51:14;2.50;;;1.00;;
4430;SDS011;2228;48.140;11.488;2023-02-18T09:53:43;1.80;;;1.30;;
4430;SDS011;2228;48.140;11.488;2023-02-18T09:56:11;2.63;;;0.90;;
4430;SDS011;2228;48.140;11.488;2023-02-18T09:58:41;1.20;;;0.80;;
4430;SDS011;2228;48.140;11.488;2023-02-18T10:01:11;1.30;;;1.00;;
4430;SDS011;2228;48.140;11.488;2023-02-18T10:03:44;1.40;;;0.70;;
4430;SDS011;2228;48.140;11.488;2023-02-18T10:06:11;1.80;;;0.90;;
4430;SDS011;2228;48.140;11.488;2023-02-18T10:08:43;1.20;;;0.80;;
4430;SDS011;2228;48.140;11.488;2023-02-18T10:11:13;2.13;;;1.00;;
4430;SDS011;2228;48.140;11.488;2023-02-18T10:13:41;0.97;;;0.70;;
4430;SDS011;2228;48.140;11.488;2023-02-18T10:16:09;1.30;;;0.80;;
4430;SDS011;2228;48.140;11.488;2023-02-18T10:18:42;3.50;;;0.80;;
4430;SDS011;2228;48.140;11.488;2023-02-18T10:21:14;1.10;;;0.70;;
4430;SDS011;2228;48.140;11.488;2023-02-18T10:23:50;1.20;;;0.80;;
4430;SDS011;2228;48.140;11.488;2023-02-18T10:26:23;1.60;;;1.10;;
4430;SDS011;2228;48.140;11.488;2023-02-18T10:28:50;2.20;;;0.90;;
4430;SDS011;2228;48.140;11.488;2023-02-18T10:31:19;5.75;;;0.90;;
4430;SDS011;2228;48.140;11.488;2023-02-18T10:33:52;1.58;;;1.00;;
4430;SDS011;2228;48.140;11.488;2023-02-18T10:36:28;3.20;;;1.00;;
4430;SDS011;2228;48.140;11.488;2023-02-18T10:39:12;2.40;;;0.80;;
4430;SDS011;2228;48.140;11.488;2023-02-18T10:42:00;1.23;;;0.90;;
4430;SDS011;2228;48.140;11.488;2023-02-18T10:44:36;1.38;;;0.85;;
4430;SDS011;2228;48.140;11.488;2023-02-18T10:47:13;1.05;;;0.70;;
4430;SDS011;2228;48.140;11.488;2023-02-18T10:49:54;1.58;;;0.90;;
4430;SDS011;2228;48.140;11.488;2023-02-18T10:52:25;1.20;;;0.80;;
4430;SDS011;2228;48.140;11.488;2023-02-18T10:54:57;1.15;;;0.90;;
4430;SDS011;2228;48.140;11.488;2023-02-18T10:57:26;1.40;;;0.90;;
4430;SDS011;2228;48.140;11.488;2023-02-18T10:59:54;1.15;;;0.70;;
4430;SDS011;2228;48.140;11.488;2023-02-18T11:02:25;2.83;;;1.10;;
4430;SDS011;2228;48.140;11.488;2023-02-18T11:04:56;1.33;;;0.80;;
4430;SDS011;2228;48.140;11.488;2023-02-18T11:07:30;3.22;;;1.10;;
4430;SDS011;2228;48.140;11.488;2023-02-18T11:10:01;1.10;;;0.80;;
4430;SDS011;2228;48.140;11.488;2023-02-18T11:12:42;1.10;;;0.75;;
4430;SDS011;2228;48.140;11.488;2023-02-18T11:15:16;2.40;;;0.80;;
4430;SDS011;2228;48.140;11.488;2023-02-18T11:17:46;2.45;;;1.00;;
4430;SDS011;2228;48.140;11.488;2023-02-18T11:20:20;2.25;;;0.90;;
4430;SDS011;2228;48.140;11.488;2023-02-18T11:22:57;1.48;;;0.85;;
4430;SDS011;2228;48.140;11.488;2023-02-18T11:25:58;2.00;;;0.80;;
4430;SDS011;2228;48.140;11.488;2023-02-18T11:28:33;2.90;;;0.75;;
4430;SDS011;2228;48.140;11.488;2023-02-18T11:31:07;3.40;;;1.03;;
4430;SDS011;2228;48.140;11.488;2023-02-18T11:33:36;2.00;;;0.80;;
4430;SDS011;2228;48.140;11.488;2023-02-18T11:36:10;2.40;;;0.80;;
4430;SDS011;2228;48.140;11.488;2023-02-18T11:38:47;2.70;;;0.70;;
4430;SDS011;2228;48.140;11.488;2023-02-18T11:41:17;1.50;;;0.70;;
4430;SDS011;2228;48.140;11.488;2023-02-18T11:43:47;2.40;;;0.70;;
4430;SDS011;2228;48.140;11.488;2023-02-18T11:46:18;3.40;;;0.80;;
4430;SDS011;2228;48.140;11.488;2023-02-18T11:48:48;1.60;;;0.80;;
4430;SDS011;2228;48.140;11.488;2023-02-18T11:51:17;3.00;;;0.80;;
4430;SDS011;2228;48.140;11.488;2023-02-18T11:53:56;1.10;;;0.80;;
4430;SDS011;2228;48.140;11.488;2023-02-18T11:56:27;2.50;;;0.80;;
4430;SDS011;2228;48.140;11.488;2023-02-18T11:58:56;2.60;;;0.70;;
4430;SDS011;2228;48.140;11.488;2023-02-18T12:01:40;1.60;;;0.60;;
4430;SDS011;2228;48.140;11.488;2023-02-18T12:04:11;1.70;;;0.90;;
4430;SDS011;2228;48.140;11.488;2023-02-18T12:06:44;1.58;;;0.80;;
4430;SDS011;2228;48.140;11.488;2023-02-18T12:09:21;1.60;;;0.82;;
4430;SDS011;2228;48.140;11.488;2023-02-18T12:11:53;2.85;;;0.70;;
4430;SDS011;2228;48.140;11.488;2023-02-18T12:14:21;0.90;;;0.70;;
4430;SDS011;2228;48.140;11.488;2023-02-18T12:16:55;1.15;;;0.60;;
4430;SDS011;2228;48.140;11.488;2023-02-18T12:19:29;2.50;;;0.70;;
4430;SDS011;2228;48.140;11.488;2023-02-18T12:22:15;1.50;;;0.70;;
4430;SDS011;2228;48.140;11.488;2023-02-18T12:24:57;3.20;;;0.70;;
4430;SDS011;2228;48.140;11.488;2023-02-18T12:27:42;3.38;;;0.90;;
4430;SDS011;2228;48.140;11.488;2023-02-18T12:30:20;2.10;;;0.70;;
4430;SDS011;2228;48.140;11.488;2023-02-18T12:33:01;3.60;;;0.90;;
4430;SDS011;2228;48.140;11.488;2023-02-18T12:35:41;3.38;;;0.60;;
4430;SDS011;2228;48.140;11.488;2023-02-18T12:38:22;1.13;;;0.70;;
4430;SDS011;2228;48.140;11.488;2023-02-18T12:40:59;1.10;;;0.80;;
4430;SDS011;2228;48.140;11.488;2023-02-18T12:43:31;3.10;;;0.80;;
4430;SDS011;2228;48.140;11.488;2023-02-18T12:46:20;0.80;;;0.67;;
4430;SDS011;2228;48.140;11.488;2023-02-18T12:49:01;5.32;;;1.10;;
4430;SDS011;2228;48.140;11.488;2023-02-18T12:51:43;1.20;;;0.70;;
4430;SDS011;2228;48.140;11.488;2023-02-18T12:54:35;2.08;;;0.90;;
4430;SDS011;2228;48.140;11.488;2023-02-18T12:57:20;1.10;;;0.80;;
4430;SDS011;2228;48.140;11.488;2023-02-18T13:00:02;2.70;;;1.30;;
4430;SDS011;2228;48.140;11.488;2023-02-18T13:02:59;0.90;;;0.60;;
4430;SDS011;2228;48.140;11.488;2023-02-18T13:05:47;1.00;;;0.80;;
4430;SDS011;2228;48.140;11.488;2023-02-18T13:08:29;1.83;;;0.70;;
4430;SDS011;2228;48.140;11.488;2023-02-18T13:11:10;2.60;;;0.70;;
4430;SDS011;2228;48.140;11.488;2023-02-18T13:13:49;2.53;;;0.93;;
4430;SDS011;2228;48.140;11.488;2023-02-18T13:16:23;2.30;;;0.70;;
4430;SDS011;2228;48.140;11.488;2023-02-18T13:18:54;1.75;;;0.70;;
4430;SDS011;2228;48.140;11.488;2023-02-18T13:21:26;3.50;;;0.80;;
4430;SDS011;2228;48.140;11.488;2023-02-18T13:23:55;4.22;;;0.90;;
4430;SDS011;2228;48.140;11.488;2023-02-18T13:26:25;1.73;;;1.05;;
4430;SDS011;2228;48.140;11.488;2023-02-18T13:28:57;2.07;;;0.80;;
4430;SDS011;2228;48.140;11.488;2023-02-18T13:31:41;2.70;;;0.70;;
4430;SDS011;2228;48.140;11.488;2023-02-18T13:34:16;1.92;;;1.02;;
4430;SDS011;2228;48.140;11.488;2023-02-18T13:36:52;1.38;;;0.70;;
4430;SDS011;2228;48.140;11.488;2023-02-18T13:39:27;1.00;;;0.70;;
4430;SDS011;2228;48.140;11.488;2023-02-18T13:42:09;1.53;;;0.97;;
4430;SDS011;2228;48.140;11.488;2023-02-18T13:44:40;1.70;;;0.90;;
4430;SDS011;2228;48.140;11.488;2023-02-18T13:47:57;2.70;;;1.00;;
4430;SDS011;2228;48.140;11.488;2023-02-18T13:53:13;2.25;;;0.90;;
4430;SDS011;2228;48.140;11.488;2023-02-18T13:55:49;4.27;;;1.00;;
4430;SDS011;2228;48.140;11.488;2023-02-18T13:58:20;4.50;;;1.10;;
4430;SDS011;2228;48.140;11.488;2023-02-18T14:00:52;1.70;;;0.90;;
4430;SDS011;2228;48.140;11.488;2023-02-18T14:06:17;3.30;;;1.00;;
4430;SDS011;2228;48.140;11.488;2023-02-18T14:08:46;1.67;;;0.87;;
4430;SDS011;2228;48.140;11.488;2023-02-18T14:11:23;2.80;;;0.90;;
4430;SDS011;2228;48.140;11.488;2023-02-18T14:17:22;4.30;;;0.80;;
4430;SDS011;2228;48.140;11.488;2023-02-18T14:23:12;3.63;;;1.00;;
4430;SDS011;2228;48.140;11.488;2023-02-18T14:26:07;1.10;;;0.80;;
4430;SDS011;2228;48.140;11.488;2023-02-18T14:28:43;1.35;;;0.85;;
4430;SDS011;2228;48.140;11.488;2023-02-18T14:31:22;1.20;;;0.75;;
4430;SDS011;2228;48.140;11.488;2023-02-18T14:34:01;1.20;;;0.80;;
4430;SDS011;2228;48.140;11.488;2023-02-18T14:37:00;1.50;;;0.85;;
4430;SDS011;2228;48.140;11.488;2023-02-18T14:39:41;1.20;;;0.80;;
4430;SDS011;2228;48.140;11.488;2023-02-18T14:42:16;1.70;;;0.80;;
4430;SDS011;2228;48.140;11.488;2023-02-18T14:45:00;1.60;;;1.00;;
4430;SDS011;2228;48.140;11.488;2023-02-18T14:47:39;1.60;;;0.90;;
4430;SDS011;2228;48.140;11.488;2023-02-18T14:50:22;1.10;;;0.80;;
4430;SDS011;2228;48.140;11.488;2023-02-18T14:52:50;1.23;;;0.85;;
4430;SDS011;2228;48.140;11.488;2023-02-18T14:55:21;1.55;;;1.02;;
4430;SDS011;2228;48.140;11.488;2023-02-18T14:57:52;1.70;;;0.98;;
4430;SDS011;2228;48.140;11.488;2023-02-18T15:00:23;3.08;;;0.90;;
4430;SDS011;2228;48.140;11.488;2023-02-18T15:02:53;2.40;;;0.80;;
4430;SDS011;2228;48.140;11.488;2023-02-18T15:05:21;2.60;;;1.05;;
4430;SDS011;2228;48.140;11.488;2023-02-18T15:07:55;2.22;;;0.90;;
4430;SDS011;2228;48.140;11.488;2023-02-18T15:10:25;1.20;;;0.90;;
4430;SDS011;2228;48.140;11.488;2023-02-18T15:13:01;1.17;;;0.80;;
4430;SDS011;2228;48.140;11.488;2023-02-18T15:15:29;2.13;;;0.90;;
4430;SDS011;2228;48.140;11.488;2023-02-18T15:17:59;4.70;;;0.70;;
4430;SDS011;2228;48.140;11.488;2023-02-18T15:20:29;1.10;;;0.80;;
4430;SDS011;2228;48.140;11.488;2023-02-18T15:22:59;1.80;;;0.70;;
4430;SDS011;2228;48.140;11.488;2023-02-18T15:25:26;2.50;;;0.88;;
4430;SDS011;2228;48.140;11.488;2023-02-18T15:27:54;0.90;;;0.80;;
4430;SDS011;2228;48.140;11.488;2023-02-18T15:30:24;1.05;;;0.70;;
4430;SDS011;2228;48.140;11.488;2023-02-18T15:32:54;3.10;;;0.80;;
4430;SDS011;2228;48.140;11.488;2023-02-18T15:35:22;1.50;;;0.70;;
4430;SDS011;2228;48.140;11.488;2023-02-18T15:37:55;1.83;;;0.90;;
4430;SDS011;2228;48.140;11.488;2023-02-18T15:40:24;2.00;;;1.02;;